Sagittarian — WCY5210 — position and weather

sailwx.info

Track history (hours):
 
Tides and Currents Weather Stations Pressure Air Temp Water Temp Dewpoint Dewpoint Depression Visibility Wind Speed Wind Dir Waves Ship Positions

Sagittarian

Owner: TAURUS MARINE, SAN FRANCISCO, CA. More information available from US FCC via Universal Licensing System and Coast Guard Vessel Documentation Center.

Last reported at 2017-Mar-30 05:33 UTC. Time now 2017-Mar-30 06:54 UTC.
Position N 37°48' W 122°23'.

; draft 3 m.

Type: Towing. MMSI: 366969510.

Date/timePositionNaut miles runAvg speedWind from/ knotsBaromVisibWave heightAir tempDewpointWater temp
2017-Mar-30 05:33N 37°48' W 122°23'7 6.9
2017-Mar-30 04:34N 37°54' W 122°22'1 0.7
2017-Mar-30 03:33N 37°55' W 122°22'0 0.0
2017-Mar-30 02:33N 37°55' W 122°22'0 0.0
2017-Mar-30 01:33N 37°55' W 122°22'0 0.0
2017-Mar-30 00:34N 37°55' W 122°22'0 0.0
2017-Mar-29 23:34N 37°55' W 122°22'0 0.0
2017-Mar-29 22:34N 37°55' W 122°22'0 0.4
2017-Mar-29 21:34N 37°55' W 122°22'6 6.3
2017-Mar-29 20:34N 37°49' W 122°23'2 0.0
2017-Mar-27 17:33N 37°46' W 122°23'0 0.2
2017-Mar-27 16:33N 37°46' W 122°23'0 0.2
2017-Mar-27 15:33N 37°46' W 122°23'0 0.0
2017-Mar-27 14:33N 37°46' W 122°23'0 0.0
2017-Mar-27 13:33N 37°46' W 122°23'0 0.0
2017-Mar-25 13:29N 37°46' W 122°23'0 0.4
2017-Mar-25 12:33N 37°47' W 122°23'6 6.4
2017-Mar-25 11:33N 37°49' W 122°30'1 0.9
2017-Mar-25 10:33N 37°49' W 122°29'6 6.0
2017-Mar-25 09:33N 37°54' W 122°25'1 1.4
2017-Mar-25 08:33N 37°55' W 122°25'4 4.3
2017-Mar-25 07:33N 37°51' W 122°24'5 0.4
2017-Mar-24 20:25N 37°46' W 122°23'4 5.0
2017-Mar-24 19:33N 37°49' W 122°27'2 2.1
2017-Mar-24 18:33N 37°48' W 122°30'6 6.5
2017-Mar-24 17:33N 37°54' W 122°26'2 1.9
2017-Mar-24 16:33N 37°55' W 122°25'2 1.6
2017-Mar-24 15:33N 37°54' W 122°23'0 0.0
2017-Mar-24 14:33N 37°54' W 122°23'0 0.0
2017-Mar-24 13:33N 37°54' W 122°23'0 0.0
2017-Mar-24 12:33N 37°54' W 122°23'3 2.9
2017-Mar-24 11:33N 37°56' W 122°26'14 4.6
2017-Mar-24 08:26N 38°02' W 122°09'6 6.4
2017-Mar-24 07:30N 38°04' W 122°16'8 8.9
2017-Mar-24 06:34N 37°60' W 122°25'4 4.2
2017-Mar-24 05:33N 37°55' W 122°25'0 0.3
2017-Mar-24 04:33N 37°55' W 122°25'3 2.9
2017-Mar-24 03:34N 37°52' W 122°24'6 0.4
2017-Mar-23 12:33N 37°46' W 122°23'9 8.9
2017-Mar-23 11:33N 37°55' W 122°25'0 0.5
2017-Mar-23 10:33N 37°55' W 122°25'2 2.3
2017-Mar-23 09:33N 37°53' W 122°25'7 0.3
2017-Mar-22 08:03N 37°46' W 122°23'3 5.2
2017-Mar-22 07:33N 37°49' W 122°23'6 5.8
2017-Mar-22 06:33N 37°55' W 122°22'3 2.6
2017-Mar-22 05:33N 37°55' W 122°25'8 8.4
2017-Mar-22 04:33N 38°03' W 122°20'9 4.1
2017-Mar-22 02:22N 38°02' W 122°08'5 0.2
2017-Mar-20 22:30N 38°04' W 122°15'4 4.5
2017-Mar-20 21:33N 38°03' W 122°20'5 5.3
2017-Mar-20 20:33N 37°60' W 122°25'4 4.1
2017-Mar-20 19:33N 37°55' W 122°25'5 4.7
2017-Mar-20 18:33N 37°51' W 122°23'  
Track history (hours):
 
Tides and Currents Weather Stations Pressure Air Temp Water Temp Dewpoint Dewpoint Depression Visibility Wind Speed Wind Dir Waves Ship Positions

Sagittarian

Owner: TAURUS MARINE, SAN FRANCISCO, CA. More information available from US FCC via Universal Licensing System and Coast Guard Vessel Documentation Center.

Last reported at 2017-Mar-30 05:33 UTC. Time now 2017-Mar-30 06:54 UTC.
Position N 37°48' W 122°23'.

; draft 3 m.

Type: Towing. MMSI: 366969510.

Date/timePositionNaut miles runAvg speedWind from/ knotsBaromVisibWave heightAir tempDewpointWater temp
2017-Mar-30 05:33N 37°48' W 122°23'7 6.9
2017-Mar-30 04:34N 37°54' W 122°22'1 0.7
2017-Mar-30 03:33N 37°55' W 122°22'0 0.0
2017-Mar-30 02:33N 37°55' W 122°22'0 0.0
2017-Mar-30 01:33N 37°55' W 122°22'0 0.0
2017-Mar-30 00:34N 37°55' W 122°22'0 0.0
2017-Mar-29 23:34N 37°55' W 122°22'0 0.0
2017-Mar-29 22:34N 37°55' W 122°22'0 0.4
2017-Mar-29 21:34N 37°55' W 122°22'6 6.3
2017-Mar-29 20:34N 37°49' W 122°23'2 0.0
2017-Mar-27 17:33N 37°46' W 122°23'0 0.2
2017-Mar-27 16:33N 37°46' W 122°23'0 0.2
2017-Mar-27 15:33N 37°46' W 122°23'0 0.0
2017-Mar-27 14:33N 37°46' W 122°23'0 0.0
2017-Mar-27 13:33N 37°46' W 122°23'0 0.0
2017-Mar-25 13:29N 37°46' W 122°23'0 0.4
2017-Mar-25 12:33N 37°47' W 122°23'6 6.4
2017-Mar-25 11:33N 37°49' W 122°30'1 0.9
2017-Mar-25 10:33N 37°49' W 122°29'6 6.0
2017-Mar-25 09:33N 37°54' W 122°25'1 1.4
2017-Mar-25 08:33N 37°55' W 122°25'4 4.3
2017-Mar-25 07:33N 37°51' W 122°24'5 0.4
2017-Mar-24 20:25N 37°46' W 122°23'4 5.0
2017-Mar-24 19:33N 37°49' W 122°27'2 2.1
2017-Mar-24 18:33N 37°48' W 122°30'6 6.5
2017-Mar-24 17:33N 37°54' W 122°26'2 1.9
2017-Mar-24 16:33N 37°55' W 122°25'2 1.6
2017-Mar-24 15:33N 37°54' W 122°23'0 0.0
2017-Mar-24 14:33N 37°54' W 122°23'0 0.0
2017-Mar-24 13:33N 37°54' W 122°23'0 0.0
2017-Mar-24 12:33N 37°54' W 122°23'3 2.9
2017-Mar-24 11:33N 37°56' W 122°26'14 4.6
2017-Mar-24 08:26N 38°02' W 122°09'6 6.4
2017-Mar-24 07:30N 38°04' W 122°16'8 8.9
2017-Mar-24 06:34N 37°60' W 122°25'4 4.2
2017-Mar-24 05:33N 37°55' W 122°25'0 0.3
2017-Mar-24 04:33N 37°55' W 122°25'3 2.9
2017-Mar-24 03:34N 37°52' W 122°24'6 0.4
2017-Mar-23 12:33N 37°46' W 122°23'9 8.9
2017-Mar-23 11:33N 37°55' W 122°25'0 0.5
2017-Mar-23 10:33N 37°55' W 122°25'2 2.3
2017-Mar-23 09:33N 37°53' W 122°25'7 0.3
2017-Mar-22 08:03N 37°46' W 122°23'3 5.2
2017-Mar-22 07:33N 37°49' W 122°23'6 5.8
2017-Mar-22 06:33N 37°55' W 122°22'3 2.6
2017-Mar-22 05:33N 37°55' W 122°25'8 8.4
2017-Mar-22 04:33N 38°03' W 122°20'9 4.1
2017-Mar-22 02:22N 38°02' W 122°08'5 0.2
2017-Mar-20 22:30N 38°04' W 122°15'4 4.5
2017-Mar-20 21:33N 38°03' W 122°20'5 5.3
2017-Mar-20 20:33N 37°60' W 122°25'4 4.1
2017-Mar-20 19:33N 37°55' W 122°25'5 4.7
2017-Mar-20 18:33N 37°51' W 122°23'  

Dump ship's entire track history